sensor_id;sensor_type;location;lat;lon;timestamp;temperature;humidity
27266;DHT22;14766;51.380;13.762;2023-08-17T00:00:05;27.40;56.50
27266;DHT22;14766;51.380;13.762;2023-08-17T00:02:37;27.40;56.60
27266;DHT22;14766;51.380;13.762;2023-08-17T00:05:05;27.40;56.60
27266;DHT22;14766;51.380;13.762;2023-08-17T00:07:36;27.30;56.60
27266;DHT22;14766;51.380;13.762;2023-08-17T00:10:03;27.30;56.60
27266;DHT22;14766;51.380;13.762;2023-08-17T00:12:31;27.30;56.70
27266;DHT22;14766;51.380;13.762;2023-08-17T00:14:58;27.30;56.70
27266;DHT22;14766;51.380;13.762;2023-08-17T00:17:25;27.30;56.70
27266;DHT22;14766;51.380;13.762;2023-08-17T00:19:52;27.30;56.70
27266;DHT22;14766;51.380;13.762;2023-08-17T00:22:19;27.20;56.70
27266;DHT22;14766;51.380;13.762;2023-08-17T00:24:46;27.30;56.80
27266;DHT22;14766;51.380;13.762;2023-08-17T00:27:13;27.20;56.80
27266;DHT22;14766;51.380;13.762;2023-08-17T00:29:42;27.20;56.70
27266;DHT22;14766;51.380;13.762;2023-08-17T00:32:09;27.20;56.70
27266;DHT22;14766;51.380;13.762;2023-08-17T00:34:37;27.20;56.80
27266;DHT22;14766;51.380;13.762;2023-08-17T00:37:04;27.10;56.70
27266;DHT22;14766;51.380;13.762;2023-08-17T00:39:32;27.10;56.70
27266;DHT22;14766;51.380;13.762;2023-08-17T00:41:59;27.10;56.70
27266;DHT22;14766;51.380;13.762;2023-08-17T00:44:26;27.10;57.30
27266;DHT22;14766;51.380;13.762;2023-08-17T00:46:54;27.00;56.60
27266;DHT22;14766;51.380;13.762;2023-08-17T00:49:22;27.00;56.60
27266;DHT22;14766;51.380;13.762;2023-08-17T00:51:50;26.90;56.60
27266;DHT22;14766;51.380;13.762;2023-08-17T00:54:24;26.90;56.70
27266;DHT22;14766;51.380;13.762;2023-08-17T00:56:53;26.80;56.70
27266;DHT22;14766;51.380;13.762;2023-08-17T00:59:22;26.80;56.80
27266;DHT22;14766;51.380;13.762;2023-08-17T01:01:50;26.80;56.90
27266;DHT22;14766;51.380;13.762;2023-08-17T01:04:17;26.70;56.90
27266;DHT22;14766;51.380;13.762;2023-08-17T01:06:45;26.70;57.00
27266;DHT22;14766;51.380;13.762;2023-08-17T01:09:12;26.70;57.00
27266;DHT22;14766;51.380;13.762;2023-08-17T01:12:03;26.70;57.00
27266;DHT22;14766;51.380;13.762;2023-08-17T01:14:43;26.70;57.20
27266;DHT22;14766;51.380;13.762;2023-08-17T01:17:22;26.60;57.10
27266;DHT22;14766;51.380;13.762;2023-08-17T01:19:53;26.60;57.10
27266;DHT22;14766;51.380;13.762;2023-08-17T01:22:22;26.60;57.10
27266;DHT22;14766;51.380;13.762;2023-08-17T01:24:49;26.60;57.10
27266;DHT22;14766;51.380;13.762;2023-08-17T01:27:17;26.60;57.20
27266;DHT22;14766;51.380;13.762;2023-08-17T01:29:45;26.60;57.10
27266;DHT22;14766;51.380;13.762;2023-08-17T01:32:20;26.60;57.10
27266;DHT22;14766;51.380;13.762;2023-08-17T01:34:57;26.50;57.10
27266;DHT22;14766;51.380;13.762;2023-08-17T01:37:26;26.60;57.10
27266;DHT22;14766;51.380;13.762;2023-08-17T01:39:56;26.60;57.20
27266;DHT22;14766;51.380;13.762;2023-08-17T01:42:25;26.50;56.90
27266;DHT22;14766;51.380;13.762;2023-08-17T01:44:54;26.50;56.90
27266;DHT22;14766;51.380;13.762;2023-08-17T01:47:22;26.40;57.00
27266;DHT22;14766;51.380;13.762;2023-08-17T01:49:50;26.40;57.10
27266;DHT22;14766;51.380;13.762;2023-08-17T01:52:17;26.40;57.20
27266;DHT22;14766;51.380;13.762;2023-08-17T01:54:44;26.40;57.30
27266;DHT22;14766;51.380;13.762;2023-08-17T01:57:12;26.40;57.40
27266;DHT22;14766;51.380;13.762;2023-08-17T01:59:39;26.30;57.50
27266;DHT22;14766;51.380;13.762;2023-08-17T02:02:06;26.30;57.40
27266;DHT22;14766;51.380;13.762;2023-08-17T02:04:35;26.30;57.70
27266;DHT22;14766;51.380;13.762;2023-08-17T02:07:03;26.30;57.70
27266;DHT22;14766;51.380;13.762;2023-08-17T02:09:30;26.30;57.70
27266;DHT22;14766;51.380;13.762;2023-08-17T02:11:57;26.30;58.30
27266;DHT22;14766;51.380;13.762;2023-08-17T02:14:24;26.20;57.90
27266;DHT22;14766;51.380;13.762;2023-08-17T02:16:52;26.20;57.80
27266;DHT22;14766;51.380;13.762;2023-08-17T02:19:19;26.20;57.90
27266;DHT22;14766;51.380;13.762;2023-08-17T02:21:48;26.20;58.00
27266;DHT22;14766;51.380;13.762;2023-08-17T02:24:16;26.20;58.00
27266;DHT22;14766;51.380;13.762;2023-08-17T02:26:44;26.20;58.10
27266;DHT22;14766;51.380;13.762;2023-08-17T02:29:13;26.10;58.00
27266;DHT22;14766;51.380;13.762;2023-08-17T02:31:41;26.10;58.00
27266;DHT22;14766;51.380;13.762;2023-08-17T02:34:08;26.10;58.00
27266;DHT22;14766;51.380;13.762;2023-08-17T02:36:36;26.10;58.20
27266;DHT22;14766;51.380;13.762;2023-08-17T02:39:03;26.10;58.30
27266;DHT22;14766;51.380;13.762;2023-08-17T02:41:30;26.00;58.20
27266;DHT22;14766;51.380;13.762;2023-08-17T02:43:59;26.00;58.50
27266;DHT22;14766;51.380;13.762;2023-08-17T02:46:26;25.90;58.40
27266;DHT22;14766;51.380;13.762;2023-08-17T02:48:53;25.90;58.50
27266;DHT22;14766;51.380;13.762;2023-08-17T02:51:20;25.90;58.70
27266;DHT22;14766;51.380;13.762;2023-08-17T02:53:47;25.80;58.80
27266;DHT22;14766;51.380;13.762;2023-08-17T02:56:14;25.80;58.80
27266;DHT22;14766;51.380;13.762;2023-08-17T02:58:41;25.80;58.80
27266;DHT22;14766;51.380;13.762;2023-08-17T03:01:08;25.70;58.80
27266;DHT22;14766;51.380;13.762;2023-08-17T03:03:36;25.70;58.90
27266;DHT22;14766;51.380;13.762;2023-08-17T03:06:03;25.70;59.10
27266;DHT22;14766;51.380;13.762;2023-08-17T03:08:30;25.60;59.10
27266;DHT22;14766;51.380;13.762;2023-08-17T03:10:57;25.60;59.10
27266;DHT22;14766;51.380;13.762;2023-08-17T03:13:24;25.60;59.30
27266;DHT22;14766;51.380;13.762;2023-08-17T03:15:51;25.60;59.30
27266;DHT22;14766;51.380;13.762;2023-08-17T03:18:18;25.60;59.30
27266;DHT22;14766;51.380;13.762;2023-08-17T03:20:47;25.60;59.40
27266;DHT22;14766;51.380;13.762;2023-08-17T03:23:15;25.60;59.40
27266;DHT22;14766;51.380;13.762;2023-08-17T03:25:43;25.60;59.40
27266;DHT22;14766;51.380;13.762;2023-08-17T03:28:10;25.60;59.40
27266;DHT22;14766;51.380;13.762;2023-08-17T03:30:37;25.60;59.40
27266;DHT22;14766;51.380;13.762;2023-08-17T03:33:04;25.60;59.40
27266;DHT22;14766;51.380;13.762;2023-08-17T03:35:32;25.60;59.30
27266;DHT22;14766;51.380;13.762;2023-08-17T03:38:00;25.60;59.40
27266;DHT22;14766;51.380;13.762;2023-08-17T03:40:27;25.60;59.40
27266;DHT22;14766;51.380;13.762;2023-08-17T03:42:54;25.60;59.40
27266;DHT22;14766;51.380;13.762;2023-08-17T03:45:21;25.60;59.50
27266;DHT22;14766;51.380;13.762;2023-08-17T03:47:50;25.60;59.50
27266;DHT22;14766;51.380;13.762;2023-08-17T03:50:17;25.60;59.60
27266;DHT22;14766;51.380;13.762;2023-08-17T03:52:44;25.50;59.50
27266;DHT22;14766;51.380;13.762;2023-08-17T03:55:11;25.50;59.50
27266;DHT22;14766;51.380;13.762;2023-08-17T03:57:38;25.50;59.50
27266;DHT22;14766;51.380;13.762;2023-08-17T04:00:07;25.50;59.60
27266;DHT22;14766;51.380;13.762;2023-08-17T04:02:39;25.50;59.70
27266;DHT22;14766;51.380;13.762;2023-08-17T04:05:07;25.50;59.70
27266;DHT22;14766;51.380;13.762;2023-08-17T04:07:35;25.50;59.70
27266;DHT22;14766;51.380;13.762;2023-08-17T04:10:05;25.50;59.70
27266;DHT22;14766;51.380;13.762;2023-08-17T04:12:32;25.40;59.70
27266;DHT22;14766;51.380;13.762;2023-08-17T04:14:59;25.40;59.90
27266;DHT22;14766;51.380;13.762;2023-08-17T04:17:27;25.40;59.80
27266;DHT22;14766;51.380;13.762;2023-08-17T04:19:55;25.40;60.00
27266;DHT22;14766;51.380;13.762;2023-08-17T04:22:22;25.40;60.00
27266;DHT22;14766;51.380;13.762;2023-08-17T04:24:49;25.40;60.10
27266;DHT22;14766;51.380;13.762;2023-08-17T04:27:16;25.30;60.10
27266;DHT22;14766;51.380;13.762;2023-08-17T04:29:45;25.30;60.20
27266;DHT22;14766;51.380;13.762;2023-08-17T04:32:16;25.30;60.30
27266;DHT22;14766;51.380;13.762;2023-08-17T04:34:45;25.30;60.40
27266;DHT22;14766;51.380;13.762;2023-08-17T04:37:15;25.40;60.60
27266;DHT22;14766;51.380;13.762;2023-08-17T04:39:42;25.40;60.50
27266;DHT22;14766;51.380;13.762;2023-08-17T04:42:15;25.40;60.50
27266;DHT22;14766;51.380;13.762;2023-08-17T04:44:43;25.40;60.50
27266;DHT22;14766;51.380;13.762;2023-08-17T04:47:10;25.40;60.40
27266;DHT22;14766;51.380;13.762;2023-08-17T04:49:37;25.40;60.50
27266;DHT22;14766;51.380;13.762;2023-08-17T04:52:05;25.30;60.50
27266;DHT22;14766;51.380;13.762;2023-08-17T04:54:33;25.30;60.60
27266;DHT22;14766;51.380;13.762;2023-08-17T04:57:01;25.30;60.80
27266;DHT22;14766;51.380;13.762;2023-08-17T04:59:29;25.30;60.80
27266;DHT22;14766;51.380;13.762;2023-08-17T05:01:56;25.30;60.90
27266;DHT22;14766;51.380;13.762;2023-08-17T05:04:23;25.30;60.90
27266;DHT22;14766;51.380;13.762;2023-08-17T05:06:52;25.40;61.10
27266;DHT22;14766;51.380;13.762;2023-08-17T05:09:19;25.40;61.00
27266;DHT22;14766;51.380;13.762;2023-08-17T05:11:47;25.50;61.00
27266;DHT22;14766;51.380;13.762;2023-08-17T05:14:14;25.50;60.90
27266;DHT22;14766;51.380;13.762;2023-08-17T05:16:42;25.50;60.80
27266;DHT22;14766;51.380;13.762;2023-08-17T05:19:10;25.60;60.70
27266;DHT22;14766;51.380;13.762;2023-08-17T05:21:37;25.60;60.60
27266;DHT22;14766;51.380;13.762;2023-08-17T05:24:04;25.70;60.40
27266;DHT22;14766;51.380;13.762;2023-08-17T05:26:31;25.70;60.20
27266;DHT22;14766;51.380;13.762;2023-08-17T05:28:59;25.70;60.00
27266;DHT22;14766;51.380;13.762;2023-08-17T05:31:26;25.80;60.00
27266;DHT22;14766;51.380;13.762;2023-08-17T05:33:54;25.80;59.70
27266;DHT22;14766;51.380;13.762;2023-08-17T05:36:24;25.80;59.60
27266;DHT22;14766;51.380;13.762;2023-08-17T05:38:52;25.80;59.70
27266;DHT22;14766;51.380;13.762;2023-08-17T05:41:19;25.80;59.40
27266;DHT22;14766;51.380;13.762;2023-08-17T05:43:48;25.80;59.40
27266;DHT22;14766;51.380;13.762;2023-08-17T05:46:15;25.80;59.40
27266;DHT22;14766;51.380;13.762;2023-08-17T05:48:43;25.90;59.70
27266;DHT22;14766;51.380;13.762;2023-08-17T05:51:10;25.90;59.60
27266;DHT22;14766;51.380;13.762;2023-08-17T05:53:37;25.90;59.60
27266;DHT22;14766;51.380;13.762;2023-08-17T05:56:04;25.90;59.50
27266;DHT22;14766;51.380;13.762;2023-08-17T05:58:31;25.90;59.40
27266;DHT22;14766;51.380;13.762;2023-08-17T06:01:08;26.00;59.60
27266;DHT22;14766;51.380;13.762;2023-08-17T06:03:36;26.10;59.50
27266;DHT22;14766;51.380;13.762;2023-08-17T06:06:04;26.10;59.50
27266;DHT22;14766;51.380;13.762;2023-08-17T06:08:34;26.10;59.40
27266;DHT22;14766;51.380;13.762;2023-08-17T06:11:01;26.20;59.40
27266;DHT22;14766;51.380;13.762;2023-08-17T06:13:28;26.20;59.30
27266;DHT22;14766;51.380;13.762;2023-08-17T06:15:58;26.30;59.20
27266;DHT22;14766;51.380;13.762;2023-08-17T06:18:25;26.30;59.00
27266;DHT22;14766;51.380;13.762;2023-08-17T06:20:52;26.40;58.90
27266;DHT22;14766;51.380;13.762;2023-08-17T06:23:20;26.40;58.80
27266;DHT22;14766;51.380;13.762;2023-08-17T06:25:47;26.50;58.80
27266;DHT22;14766;51.380;13.762;2023-08-17T06:28:14;26.60;58.60
27266;DHT22;14766;51.380;13.762;2023-08-17T06:30:41;26.60;58.60
27266;DHT22;14766;51.380;13.762;2023-08-17T06:33:08;26.70;58.50
27266;DHT22;14766;51.380;13.762;2023-08-17T06:35:35;26.80;58.30
27266;DHT22;14766;51.380;13.762;2023-08-17T06:38:03;26.80;58.10
27266;DHT22;14766;51.380;13.762;2023-08-17T06:40:29;26.80;57.90
27266;DHT22;14766;51.380;13.762;2023-08-17T06:42:56;26.80;57.80
27266;DHT22;14766;51.380;13.762;2023-08-17T06:45:24;26.90;58.50
27266;DHT22;14766;51.380;13.762;2023-08-17T06:47:52;26.90;57.90
27266;DHT22;14766;51.380;13.762;2023-08-17T06:50:20;27.00;58.00
27266;DHT22;14766;51.380;13.762;2023-08-17T06:52:48;27.00;58.20
27266;DHT22;14766;51.380;13.762;2023-08-17T06:55:15;27.10;58.20
27266;DHT22;14766;51.380;13.762;2023-08-17T06:57:43;27.30;57.70
27266;DHT22;14766;51.380;13.762;2023-08-17T07:00:11;27.40;57.40
27266;DHT22;14766;51.380;13.762;2023-08-17T07:02:38;27.60;57.30
27266;DHT22;14766;51.380;13.762;2023-08-17T07:05:20;27.70;57.10
27266;DHT22;14766;51.380;13.762;2023-08-17T07:07:50;27.90;56.80
27266;DHT22;14766;51.380;13.762;2023-08-17T07:10:17;28.10;56.40
27266;DHT22;14766;51.380;13.762;2023-08-17T07:12:44;28.20;56.00
27266;DHT22;14766;51.380;13.762;2023-08-17T07:15:13;28.20;55.80
27266;DHT22;14766;51.380;13.762;2023-08-17T07:17:40;28.30;55.20
27266;DHT22;14766;51.380;13.762;2023-08-17T07:20:08;28.40;55.00
27266;DHT22;14766;51.380;13.762;2023-08-17T07:22:39;28.40;54.40
27266;DHT22;14766;51.380;13.762;2023-08-17T07:25:07;28.30;54.40
27266;DHT22;14766;51.380;13.762;2023-08-17T07:27:36;28.30;54.20
27266;DHT22;14766;51.380;13.762;2023-08-17T07:30:03;28.20;54.30
27266;DHT22;14766;51.380;13.762;2023-08-17T07:32:30;28.20;54.70
27266;DHT22;14766;51.380;13.762;2023-08-17T07:34:57;28.20;54.80
27266;DHT22;14766;51.380;13.762;2023-08-17T07:37:24;28.20;55.00
27266;DHT22;14766;51.380;13.762;2023-08-17T07:39:58;28.30;55.30
27266;DHT22;14766;51.380;13.762;2023-08-17T07:42:25;28.40;56.00
27266;DHT22;14766;51.380;13.762;2023-08-17T07:44:53;28.60;56.30
27266;DHT22;14766;51.380;13.762;2023-08-17T07:47:20;28.80;56.30
27266;DHT22;14766;51.380;13.762;2023-08-17T07:49:47;29.20;55.40
27266;DHT22;14766;51.380;13.762;2023-08-17T07:52:15;29.50;54.20
27266;DHT22;14766;51.380;13.762;2023-08-17T07:54:45;29.80;53.60
27266;DHT22;14766;51.380;13.762;2023-08-17T07:57:12;30.20;53.40
27266;DHT22;14766;51.380;13.762;2023-08-17T07:59:39;30.50;52.50
27266;DHT22;14766;51.380;13.762;2023-08-17T08:02:06;30.80;51.90
27266;DHT22;14766;51.380;13.762;2023-08-17T08:04:34;31.10;51.10
27266;DHT22;14766;51.380;13.762;2023-08-17T08:07:01;31.50;51.10
27266;DHT22;14766;51.380;13.762;2023-08-17T08:09:28;31.80;50.30
27266;DHT22;14766;51.380;13.762;2023-08-17T08:11:55;32.10;50.00
27266;DHT22;14766;51.380;13.762;2023-08-17T08:14:22;32.50;49.30
27266;DHT22;14766;51.380;13.762;2023-08-17T08:16:50;32.70;48.40
27266;DHT22;14766;51.380;13.762;2023-08-17T08:19:17;33.00;47.60
27266;DHT22;14766;51.380;13.762;2023-08-17T08:21:44;33.30;47.00
27266;DHT22;14766;51.380;13.762;2023-08-17T08:24:11;33.50;46.70
27266;DHT22;14766;51.380;13.762;2023-08-17T08:26:56;33.70;45.80
27266;DHT22;14766;51.380;13.762;2023-08-17T08:29:24;34.00;45.20
27266;DHT22;14766;51.380;13.762;2023-08-17T08:31:51;34.20;44.90
27266;DHT22;14766;51.380;13.762;2023-08-17T08:34:18;34.30;44.70
27266;DHT22;14766;51.380;13.762;2023-08-17T08:36:45;34.50;43.70
27266;DHT22;14766;51.380;13.762;2023-08-17T08:39:12;34.70;42.90
27266;DHT22;14766;51.380;13.762;2023-08-17T08:41:40;34.80;42.60
27266;DHT22;14766;51.380;13.762;2023-08-17T08:44:08;34.90;41.70
27266;DHT22;14766;51.380;13.762;2023-08-17T08:46:39;34.90;41.10
27266;DHT22;14766;51.380;13.762;2023-08-17T08:49:11;35.00;40.60
27266;DHT22;14766;51.380;13.762;2023-08-17T08:51:42;34.90;41.40
27266;DHT22;14766;51.380;13.762;2023-08-17T08:54:14;34.90;40.90
27266;DHT22;14766;51.380;13.762;2023-08-17T08:56:44;34.80;40.60
27266;DHT22;14766;51.380;13.762;2023-08-17T08:59:14;34.70;40.10
27266;DHT22;14766;51.380;13.762;2023-08-17T09:01:42;34.60;40.10
27266;DHT22;14766;51.380;13.762;2023-08-17T09:04:09;34.60;40.60
27266;DHT22;14766;51.380;13.762;2023-08-17T09:06:37;34.50;41.60
27266;DHT22;14766;51.380;13.762;2023-08-17T09:09:06;34.50;41.90
27266;DHT22;14766;51.380;13.762;2023-08-17T09:11:37;34.70;41.10
27266;DHT22;14766;51.380;13.762;2023-08-17T09:14:10;34.70;40.60
27266;DHT22;14766;51.380;13.762;2023-08-17T09:16:38;34.70;40.20
27266;DHT22;14766;51.380;13.762;2023-08-17T09:19:06;34.60;40.50
27266;DHT22;14766;51.380;13.762;2023-08-17T09:21:33;34.40;40.30
27266;DHT22;14766;51.380;13.762;2023-08-17T09:24:00;34.20;40.50
27266;DHT22;14766;51.380;13.762;2023-08-17T09:26:31;34.00;40.70
27266;DHT22;14766;51.380;13.762;2023-08-17T09:28:59;33.80;41.50
27266;DHT22;14766;51.380;13.762;2023-08-17T09:31:31;33.70;42.30
27266;DHT22;14766;51.380;13.762;2023-08-17T09:34:05;33.70;42.30
27266;DHT22;14766;51.380;13.762;2023-08-17T09:36:35;33.70;41.90
27266;DHT22;14766;51.380;13.762;2023-08-17T09:39:02;33.70;42.30
27266;DHT22;14766;51.380;13.762;2023-08-17T09:41:30;33.80;42.50
27266;DHT22;14766;51.380;13.762;2023-08-17T09:43:57;34.00;43.00
27266;DHT22;14766;51.380;13.762;2023-08-17T09:46:24;34.10;42.30
27266;DHT22;14766;51.380;13.762;2023-08-17T09:48:53;34.30;42.00
27266;DHT22;14766;51.380;13.762;2023-08-17T09:51:20;34.40;41.80
27266;DHT22;14766;51.380;13.762;2023-08-17T09:53:52;34.70;41.70
27266;DHT22;14766;51.380;13.762;2023-08-17T09:56:27;34.90;41.60
27266;DHT22;14766;51.380;13.762;2023-08-17T09:58:55;35.10;41.10
27266;DHT22;14766;51.380;13.762;2023-08-17T10:01:23;35.20;39.80
27266;DHT22;14766;51.380;13.762;2023-08-17T10:03:52;35.40;40.40
27266;DHT22;14766;51.380;13.762;2023-08-17T10:06:22;35.50;39.50
27266;DHT22;14766;51.380;13.762;2023-08-17T10:08:54;35.50;39.40
27266;DHT22;14766;51.380;13.762;2023-08-17T10:11:26;35.50;39.00
27266;DHT22;14766;51.380;13.762;2023-08-17T10:14:02;35.60;39.40
27266;DHT22;14766;51.380;13.762;2023-08-17T10:16:49;35.60;38.90
27266;DHT22;14766;51.380;13.762;2023-08-17T10:24:38;35.50;38.30
27266;DHT22;14766;51.380;13.762;2023-08-17T10:27:06;35.50;38.30
27266;DHT22;14766;51.380;13.762;2023-08-17T10:29:36;35.40;38.40
27266;DHT22;14766;51.380;13.762;2023-08-17T10:32:06;35.30;38.00
27266;DHT22;14766;51.380;13.762;2023-08-17T10:34:35;35.20;38.40
27266;DHT22;14766;51.380;13.762;2023-08-17T10:37:02;35.20;38.70
27266;DHT22;14766;51.380;13.762;2023-08-17T10:39:30;35.20;39.00
27266;DHT22;14766;51.380;13.762;2023-08-17T10:41:58;35.10;39.40
27266;DHT22;14766;51.380;13.762;2023-08-17T10:44:42;35.10;39.20
27266;DHT22;14766;51.380;13.762;2023-08-17T10:47:32;35.10;38.80
27266;DHT22;14766;51.380;13.762;2023-08-17T10:50:05;35.10;39.00
27266;DHT22;14766;51.380;13.762;2023-08-17T10:52:35;35.10;39.50
27266;DHT22;14766;51.380;13.762;2023-08-17T10:55:09;35.20;39.30
27266;DHT22;14766;51.380;13.762;2023-08-17T10:57:40;35.20;39.60
27266;DHT22;14766;51.380;13.762;2023-08-17T11:02:38;35.30;39.40
27266;DHT22;14766;51.380;13.762;2023-08-17T11:05:06;35.30;39.50
27266;DHT22;14766;51.380;13.762;2023-08-17T11:07:44;35.20;39.70
27266;DHT22;14766;51.380;13.762;2023-08-17T11:12:47;35.20;39.90
27266;DHT22;14766;51.380;13.762;2023-08-17T11:15:19;35.20;40.20
27266;DHT22;14766;51.380;13.762;2023-08-17T11:17:49;35.20;40.50
27266;DHT22;14766;51.380;13.762;2023-08-17T11:20:16;35.20;40.50
27266;DHT22;14766;51.380;13.762;2023-08-17T11:22:44;35.20;39.90
27266;DHT22;14766;51.380;13.762;2023-08-17T11:25:13;35.20;41.20
27266;DHT22;14766;51.380;13.762;2023-08-17T11:27:40;35.20;40.80
27266;DHT22;14766;51.380;13.762;2023-08-17T11:30:08;35.20;40.70
27266;DHT22;14766;51.380;13.762;2023-08-17T11:32:35;35.30;40.70
27266;DHT22;14766;51.380;13.762;2023-08-17T11:35:03;35.30;40.50
27266;DHT22;14766;51.380;13.762;2023-08-17T11:37:31;35.30;40.30
27266;DHT22;14766;51.380;13.762;2023-08-17T11:39:59;35.20;40.40
27266;DHT22;14766;51.380;13.762;2023-08-17T11:42:27;35.20;40.30
27266;DHT22;14766;51.380;13.762;2023-08-17T11:44:56;35.20;40.30
27266;DHT22;14766;51.380;13.762;2023-08-17T11:47:23;35.20;40.70
27266;DHT22;14766;51.380;13.762;2023-08-17T11:49:50;35.20;40.60
27266;DHT22;14766;51.380;13.762;2023-08-17T11:52:17;35.10;40.60
27266;DHT22;14766;51.380;13.762;2023-08-17T11:54:45;35.10;40.40
27266;DHT22;14766;51.380;13.762;2023-08-17T11:57:18;35.10;40.80
27266;DHT22;14766;51.380;13.762;2023-08-17T11:59:45;35.10;40.40
27266;DHT22;14766;51.380;13.762;2023-08-17T12:02:12;35.00;40.70
27266;DHT22;14766;51.380;13.762;2023-08-17T12:04:39;35.00;40.60
27266;DHT22;14766;51.380;13.762;2023-08-17T12:07:07;35.00;40.80
27266;DHT22;14766;51.380;13.762;2023-08-17T12:09:34;35.00;40.70
27266;DHT22;14766;51.380;13.762;2023-08-17T12:12:01;34.90;40.70
27266;DHT22;14766;51.380;13.762;2023-08-17T12:14:28;35.00;41.20
27266;DHT22;14766;51.380;13.762;2023-08-17T12:16:55;34.90;40.70
27266;DHT22;14766;51.380;13.762;2023-08-17T12:19:26;34.90;40.80
27266;DHT22;14766;51.380;13.762;2023-08-17T12:21:54;34.80;40.80
27266;DHT22;14766;51.380;13.762;2023-08-17T12:24:24;34.80;40.70
27266;DHT22;14766;51.380;13.762;2023-08-17T12:26:51;34.80;40.90
27266;DHT22;14766;51.380;13.762;2023-08-17T12:29:20;34.80;41.30
27266;DHT22;14766;51.380;13.762;2023-08-17T12:31:47;34.70;41.20
27266;DHT22;14766;51.380;13.762;2023-08-17T12:34:14;34.80;41.20
27266;DHT22;14766;51.380;13.762;2023-08-17T12:36:43;34.80;41.40
27266;DHT22;14766;51.380;13.762;2023-08-17T12:39:10;34.80;41.60
27266;DHT22;14766;51.380;13.762;2023-08-17T12:41:37;34.80;41.20
27266;DHT22;14766;51.380;13.762;2023-08-17T12:44:04;34.80;41.50
27266;DHT22;14766;51.380;13.762;2023-08-17T12:46:31;34.80;41.20
27266;DHT22;14766;51.380;13.762;2023-08-17T12:48:59;34.80;41.10
27266;DHT22;14766;51.380;13.762;2023-08-17T12:51:26;34.70;41.00
27266;DHT22;14766;51.380;13.762;2023-08-17T12:53:53;34.70;40.90
27266;DHT22;14766;51.380;13.762;2023-08-17T12:56:20;34.70;41.00
27266;DHT22;14766;51.380;13.762;2023-08-17T12:58:47;34.60;40.80
27266;DHT22;14766;51.380;13.762;2023-08-17T13:01:14;34.60;40.90
27266;DHT22;14766;51.380;13.762;2023-08-17T13:03:42;34.50;41.00
27266;DHT22;14766;51.380;13.762;2023-08-17T13:06:10;34.50;41.20
27266;DHT22;14766;51.380;13.762;2023-08-17T13:08:37;34.50;41.60
27266;DHT22;14766;51.380;13.762;2023-08-17T13:11:04;34.50;41.90
27266;DHT22;14766;51.380;13.762;2023-08-17T13:13:33;34.60;41.80
27266;DHT22;14766;51.380;13.762;2023-08-17T13:16:01;34.60;41.70
27266;DHT22;14766;51.380;13.762;2023-08-17T13:18:31;34.60;41.80
27266;DHT22;14766;51.380;13.762;2023-08-17T13:20:59;34.60;41.60
27266;DHT22;14766;51.380;13.762;2023-08-17T13:23:26;34.60;41.70
27266;DHT22;14766;51.380;13.762;2023-08-17T13:25:56;34.60;41.90
27266;DHT22;14766;51.380;13.762;2023-08-17T13:28:24;34.60;41.50
27266;DHT22;14766;51.380;13.762;2023-08-17T13:30:51;34.60;41.40
27266;DHT22;14766;51.380;13.762;2023-08-17T13:33:18;34.60;41.20
27266;DHT22;14766;51.380;13.762;2023-08-17T13:35:45;34.60;41.30
27266;DHT22;14766;51.380;13.762;2023-08-17T13:38:12;34.60;41.10
27266;DHT22;14766;51.380;13.762;2023-08-17T13:40:39;34.60;41.20
27266;DHT22;14766;51.380;13.762;2023-08-17T13:43:06;34.60;41.30
27266;DHT22;14766;51.380;13.762;2023-08-17T13:45:39;34.60;41.80
27266;DHT22;14766;51.380;13.762;2023-08-17T13:48:07;34.60;42.10
27266;DHT22;14766;51.380;13.762;2023-08-17T13:50:37;34.60;42.30
27266;DHT22;14766;51.380;13.762;2023-08-17T13:53:05;34.60;42.50
27266;DHT22;14766;51.380;13.762;2023-08-17T13:55:33;34.60;42.00
27266;DHT22;14766;51.380;13.762;2023-08-17T13:58:00;34.60;41.90
27266;DHT22;14766;51.380;13.762;2023-08-17T14:00:27;34.60;41.80
27266;DHT22;14766;51.380;13.762;2023-08-17T14:02:54;34.60;41.50
27266;DHT22;14766;51.380;13.762;2023-08-17T14:05:21;34.60;41.80
27266;DHT22;14766;51.380;13.762;2023-08-17T14:07:48;34.60;41.80
27266;DHT22;14766;51.380;13.762;2023-08-17T14:10:15;34.60;41.70
27266;DHT22;14766;51.380;13.762;2023-08-17T14:12:59;34.60;41.00
27266;DHT22;14766;51.380;13.762;2023-08-17T14:15:27;34.60;41.10
27266;DHT22;14766;51.380;13.762;2023-08-17T14:17:56;34.60;41.20
27266;DHT22;14766;51.380;13.762;2023-08-17T14:20:24;34.50;41.30
27266;DHT22;14766;51.380;13.762;2023-08-17T14:22:52;34.50;41.50
27266;DHT22;14766;51.380;13.762;2023-08-17T14:25:19;34.50;41.60
27266;DHT22;14766;51.380;13.762;2023-08-17T14:27:48;34.40;41.50
27266;DHT22;14766;51.380;13.762;2023-08-17T14:30:16;34.40;41.20
27266;DHT22;14766;51.380;13.762;2023-08-17T14:32:43;34.40;41.10
27266;DHT22;14766;51.380;13.762;2023-08-17T14:35:10;34.40;41.20
27266;DHT22;14766;51.380;13.762;2023-08-17T14:37:38;34.50;41.50
27266;DHT22;14766;51.380;13.762;2023-08-17T14:40:06;34.40;41.50
27266;DHT22;14766;51.380;13.762;2023-08-17T14:42:33;34.40;41.60
27266;DHT22;14766;51.380;13.762;2023-08-17T14:45:00;34.40;41.40
27266;DHT22;14766;51.380;13.762;2023-08-17T14:47:33;34.40;41.20
27266;DHT22;14766;51.380;13.762;2023-08-17T14:50:01;34.40;41.30
27266;DHT22;14766;51.380;13.762;2023-08-17T14:52:28;34.40;41.50
27266;DHT22;14766;51.380;13.762;2023-08-17T14:54:59;34.40;41.60
27266;DHT22;14766;51.380;13.762;2023-08-17T14:57:26;34.40;41.90
27266;DHT22;14766;51.380;13.762;2023-08-17T14:59:54;34.30;41.90
27266;DHT22;14766;51.380;13.762;2023-08-17T15:02:22;34.30;41.80
27266;DHT22;14766;51.380;13.762;2023-08-17T15:04:50;34.30;41.90
27266;DHT22;14766;51.380;13.762;2023-08-17T15:07:16;34.30;42.10
27266;DHT22;14766;51.380;13.762;2023-08-17T15:09:43;34.30;42.40
27266;DHT22;14766;51.380;13.762;2023-08-17T15:12:11;34.30;42.70
27266;DHT22;14766;51.380;13.762;2023-08-17T15:14:39;34.30;43.00
27266;DHT22;14766;51.380;13.762;2023-08-17T15:17:06;34.20;43.30
27266;DHT22;14766;51.380;13.762;2023-08-17T15:19:36;34.20;43.10
27266;DHT22;14766;51.380;13.762;2023-08-17T15:22:07;34.20;43.30
27266;DHT22;14766;51.380;13.762;2023-08-17T15:24:41;34.10;43.50
27266;DHT22;14766;51.380;13.762;2023-08-17T15:27:10;34.10;43.70
27266;DHT22;14766;51.380;13.762;2023-08-17T15:29:37;34.00;44.00
27266;DHT22;14766;51.380;13.762;2023-08-17T15:32:04;34.00;44.10